createdAt,value
2023-04-18T00:00:53.873Z,11.21
2023-04-18T00:01:55.771Z,11.13
2023-04-18T00:02:59.265Z,11.18
2023-04-18T00:04:04.989Z,11.25
2023-04-18T00:05:07.811Z,11.30
2023-04-18T00:06:10.394Z,11.37
2023-04-18T00:07:15.355Z,11.40
2023-04-18T00:08:16.900Z,11.41
2023-04-18T00:09:18.583Z,11.40
2023-04-18T00:10:20.234Z,11.31
2023-04-18T00:11:21.847Z,11.29
2023-04-18T00:12:23.455Z,11.34
2023-04-18T00:13:25.176Z,11.37
2023-04-18T00:14:28.979Z,11.36
2023-04-18T00:15:31.273Z,11.38
2023-04-18T00:16:33.540Z,11.39
2023-04-18T00:17:38.375Z,11.40
2023-04-18T00:18:40.366Z,11.42
2023-04-18T00:19:42.238Z,11.38
2023-04-18T00:20:44.007Z,11.39
2023-04-18T00:21:46.080Z,11.43
2023-04-18T00:22:47.799Z,11.44
2023-04-18T00:23:49.438Z,11.25
2023-04-18T00:24:52.241Z,11.29
2023-04-18T00:25:53.792Z,11.30
2023-04-18T00:26:55.502Z,11.34
2023-04-18T00:27:57.021Z,11.32
2023-04-18T00:28:58.627Z,11.30
2023-04-18T00:30:00.219Z,11.32
2023-04-18T00:31:01.867Z,11.31
2023-04-18T00:32:03.552Z,11.10
2023-04-18T00:33:05.250Z,10.84
2023-04-18T00:34:06.847Z,10.64
2023-04-18T00:35:08.728Z,10.59
2023-04-18T00:36:10.458Z,10.57
2023-04-18T00:37:12.870Z,10.59
2023-04-18T00:38:14.378Z,10.63
2023-04-18T00:39:15.945Z,10.48
2023-04-18T00:40:17.584Z,10.30
2023-04-18T00:41:21.856Z,10.16
2023-04-18T00:42:25.475Z,10.14
2023-04-18T00:43:27.117Z,10.16
2023-04-18T00:44:28.701Z,10.18
2023-04-18T00:45:30.225Z,10.18
2023-04-18T00:46:31.804Z,10.20
2023-04-18T00:47:33.414Z,10.26
2023-04-18T00:48:35.165Z,10.31
2023-04-18T00:49:36.792Z,10.37
2023-04-18T00:50:38.604Z,10.38
2023-04-18T00:51:40.886Z,10.40
2023-04-18T00:52:44.726Z,10.45
2023-04-18T00:53:46.795Z,10.51
2023-04-18T00:54:48.441Z,10.55
2023-04-18T00:55:50.087Z,10.59
2023-04-18T00:56:51.725Z,10.48
2023-04-18T00:57:53.513Z,10.13
2023-04-18T00:58:55.248Z,9.83
2023-04-18T00:59:57.005Z,9.64
2023-04-18T01:00:58.679Z,9.48
2023-04-18T01:02:00.599Z,9.38
2023-04-18T01:03:02.417Z,9.35
2023-04-18T01:04:04.485Z,9.45
2023-04-18T01:05:08.015Z,9.43
2023-04-18T01:06:10.006Z,9.44
2023-04-18T01:07:11.877Z,9.45
2023-04-18T01:08:14.115Z,9.40
2023-04-18T01:09:15.984Z,9.41
2023-04-18T01:10:18.297Z,9.39
2023-04-18T01:11:20.278Z,9.39
2023-04-18T01:12:21.797Z,9.41
2023-04-18T01:13:23.389Z,9.41
2023-04-18T01:14:24.951Z,9.36
2023-04-18T01:15:26.550Z,9.35
2023-04-18T01:16:29.891Z,9.33
2023-04-18T01:17:31.724Z,9.31
2023-04-18T01:18:35.108Z,9.30
2023-04-18T01:19:40.529Z,9.25
2023-04-18T01:20:46.618Z,9.27
2023-04-18T01:21:48.207Z,9.22
2023-04-18T01:22:50.739Z,9.19
2023-04-18T01:23:54.002Z,9.25
2023-04-18T01:24:55.792Z,9.30
2023-04-18T01:25:57.721Z,9.42
2023-04-18T01:26:59.839Z,9.52
2023-04-18T01:28:02.542Z,9.50
2023-04-18T01:29:04.661Z,9.44
2023-04-18T01:30:06.941Z,9.31
2023-04-18T01:31:08.531Z,9.23
2023-04-18T01:32:10.138Z,9.29
2023-04-18T01:33:11.813Z,9.26
2023-04-18T01:34:14.698Z,9.27
2023-04-18T01:35:17.541Z,9.28
2023-04-18T01:36:19.080Z,9.34
2023-04-18T01:37:20.656Z,9.43
2023-04-18T01:38:22.245Z,9.54
2023-04-18T01:39:23.891Z,9.60
2023-04-18T01:40:25.970Z,9.65
2023-04-18T01:41:29.752Z,9.68
2023-04-18T01:42:31.377Z,9.64
2023-04-18T01:43:32.907Z,9.67
2023-04-18T01:44:34.524Z,9.69
2023-04-18T01:45:36.049Z,9.67
2023-04-18T01:46:37.933Z,9.57
2023-04-18T01:47:39.743Z,9.49
2023-04-18T01:48:41.310Z,9.54
2023-04-18T01:49:46.762Z,9.58
2023-04-18T01:50:48.308Z,9.62
2023-04-18T01:51:49.839Z,9.64
2023-04-18T01:52:51.390Z,9.68
2023-04-18T01:53:52.929Z,9.73
2023-04-18T01:54:54.538Z,9.74
2023-04-18T01:55:57.663Z,9.80
2023-04-18T01:56:59.227Z,9.87
2023-04-18T01:58:00.759Z,9.88
2023-04-18T01:59:02.335Z,9.75
2023-04-18T02:00:06.268Z,9.75
2023-04-18T02:01:08.103Z,9.79
2023-04-18T02:02:11.355Z,9.77
2023-04-18T02:03:13.118Z,9.81
2023-04-18T02:04:15.141Z,9.85
2023-04-18T02:05:16.878Z,9.80
2023-04-18T02:06:18.433Z,9.79
2023-04-18T02:07:19.948Z,9.77
2023-04-18T02:08:21.656Z,9.87
2023-04-18T02:09:23.216Z,9.95
2023-04-18T02:10:25.004Z,9.99
2023-04-18T02:11:26.571Z,9.93
2023-04-18T02:12:28.119Z,9.78
2023-04-18T02:13:29.672Z,9.66
2023-04-18T02:14:33.410Z,9.56
2023-04-18T02:15:35.541Z,9.43
2023-04-18T02:16:37.226Z,9.33
2023-04-18T02:17:38.979Z,9.23
2023-04-18T02:18:43.112Z,9.18
2023-04-18T02:19:44.647Z,9.15
2023-04-18T02:20:46.202Z,9.17
2023-04-18T02:21:47.777Z,9.19
2023-04-18T02:22:49.304Z,9.20
2023-04-18T02:23:51.081Z,9.11
2023-04-18T02:24:52.676Z,8.97
2023-04-18T02:25:54.601Z,8.83
2023-04-18T02:26:56.149Z,8.67
2023-04-18T02:27:58.291Z,8.57
2023-04-18T02:28:59.870Z,8.55
2023-04-18T02:30:01.411Z,8.48
2023-04-18T02:31:02.943Z,8.43
2023-04-18T02:32:04.724Z,8.40
2023-04-18T02:33:06.534Z,8.40
2023-04-18T02:34:08.148Z,8.46
2023-04-18T02:35:11.529Z,8.50
2023-04-18T02:36:13.602Z,8.62
2023-04-18T02:37:15.109Z,8.72
2023-04-18T02:38:16.648Z,8.75
2023-04-18T02:39:18.284Z,8.69
2023-04-18T02:40:20.044Z,8.55
2023-04-18T02:41:21.603Z,8.50
2023-04-18T02:42:23.142Z,8.54
2023-04-18T02:43:24.751Z,8.63
2023-04-18T02:44:26.372Z,8.68
2023-04-18T02:45:28.004Z,8.79
2023-04-18T02:46:29.709Z,8.89
2023-04-18T02:47:37.505Z,9.05
2023-04-18T02:48:45.458Z,9.21
2023-04-18T02:49:46.968Z,9.31
2023-04-18T02:50:48.562Z,9.40
2023-04-18T02:51:50.255Z,9.44
2023-04-18T02:52:51.774Z,9.52
2023-04-18T02:53:55.106Z,9.56
2023-04-18T02:54:56.717Z,9.60
2023-04-18T02:55:58.837Z,9.65
2023-04-18T02:57:01.354Z,9.71
2023-04-18T02:58:03.045Z,9.75
2023-04-18T02:59:04.578Z,9.78
2023-04-18T03:00:07.900Z,9.79
2023-04-18T03:01:09.492Z,9.79
2023-04-18T03:02:11.089Z,9.81
2023-04-18T03:03:13.028Z,9.84
2023-04-18T03:04:14.786Z,9.87
2023-04-18T03:05:16.574Z,9.84
2023-04-18T03:06:18.090Z,9.86
2023-04-18T03:07:19.689Z,9.91
2023-04-18T03:08:21.190Z,9.93
2023-04-18T03:09:22.750Z,9.95
2023-04-18T03:10:24.288Z,9.94
2023-04-18T03:11:25.974Z,9.96
2023-04-18T03:12:27.524Z,10.04
2023-04-18T03:13:29.030Z,10.08
2023-04-18T03:14:30.624Z,10.13
2023-04-18T03:15:32.389Z,10.15
2023-04-18T03:16:34.055Z,10.14
2023-04-18T03:17:36.436Z,10.15
2023-04-18T03:18:37.972Z,10.18
2023-04-18T03:19:39.618Z,10.17
2023-04-18T03:20:41.216Z,10.16
2023-04-18T03:21:42.750Z,10.15
2023-04-18T03:22:44.277Z,10.17
2023-04-18T03:23:45.886Z,10.19
2023-04-18T03:24:47.384Z,10.20
2023-04-18T03:25:49.056Z,10.18
2023-04-18T03:26:50.733Z,10.12
2023-04-18T03:27:52.310Z,10.17
2023-04-18T03:28:53.970Z,10.18
2023-04-18T03:29:55.533Z,10.18
2023-04-18T03:30:57.065Z,10.20
2023-04-18T03:31:58.661Z,10.22
2023-04-18T03:33:02.832Z,10.19
2023-04-18T03:34:04.632Z,9.99
2023-04-18T03:35:06.224Z,9.85
2023-04-18T03:36:08.393Z,9.72
2023-04-18T03:37:10.192Z,9.60
2023-04-18T03:38:12.402Z,9.62
2023-04-18T03:39:13.922Z,9.67
2023-04-18T03:40:15.644Z,9.69
2023-04-18T03:41:17.183Z,9.67
2023-04-18T03:42:18.774Z,9.68
2023-04-18T03:43:21.114Z,9.70
2023-04-18T03:44:22.678Z,9.76
2023-04-18T03:45:24.225Z,9.81
2023-04-18T03:46:26.049Z,9.82
2023-04-18T03:47:28.305Z,9.78
2023-04-18T03:48:29.985Z,9.81
2023-04-18T03:49:31.543Z,9.82
2023-04-18T03:50:33.424Z,9.87
2023-04-18T03:51:49.893Z,9.88
2023-04-18T03:52:52.607Z,9.85
2023-04-18T03:53:54.336Z,9.91
2023-04-18T03:54:55.996Z,9.98
2023-04-18T03:55:58.003Z,10.04
2023-04-18T03:56:59.697Z,10.09
2023-04-18T03:58:01.317Z,10.13
2023-04-18T03:59:02.856Z,10.18
2023-04-18T04:00:05.906Z,10.23
2023-04-18T04:01:07.830Z,10.28
2023-04-18T04:02:09.661Z,10.32
2023-04-18T04:03:11.564Z,10.37
2023-04-18T04:04:15.292Z,10.42
2023-04-18T04:05:17.349Z,10.36
2023-04-18T04:06:18.945Z,10.40
2023-04-18T04:07:20.767Z,10.43
2023-04-18T04:08:22.277Z,10.48
2023-04-18T04:09:23.822Z,10.40
2023-04-18T04:10:25.612Z,10.32
2023-04-18T04:11:27.343Z,10.29
2023-04-18T04:12:28.940Z,10.25
2023-04-18T04:13:30.555Z,10.29
2023-04-18T04:14:32.461Z,10.45
2023-04-18T04:15:34.036Z,10.55
2023-04-18T04:16:35.724Z,10.60
2023-04-18T04:17:37.262Z,10.63
2023-04-18T04:18:38.813Z,10.63
2023-04-18T04:19:40.401Z,10.59
2023-04-18T04:20:41.982Z,10.52
2023-04-18T04:21:43.706Z,10.54
2023-04-18T04:22:45.216Z,10.49
2023-04-18T04:23:47.974Z,10.41
2023-04-18T04:24:49.518Z,10.29
2023-04-18T04:25:54.873Z,10.22
2023-04-18T04:26:57.195Z,10.15
2023-04-18T04:28:01.526Z,10.11
2023-04-18T04:29:03.671Z,9.96
2023-04-18T04:30:06.744Z,9.81
2023-04-18T04:31:10.163Z,9.71
2023-04-18T04:32:12.985Z,9.64
2023-04-18T04:33:14.715Z,9.61
2023-04-18T04:34:16.949Z,9.65
2023-04-18T04:35:18.825Z,9.80
2023-04-18T04:36:23.021Z,9.84
2023-04-18T04:37:24.666Z,9.80
2023-04-18T04:38:27.442Z,9.79
2023-04-18T04:39:29.248Z,9.78
2023-04-18T04:40:30.794Z,9.72
2023-04-18T04:41:32.348Z,9.72
2023-04-18T04:42:33.864Z,9.78
2023-04-18T04:43:35.681Z,9.83
2023-04-18T04:44:37.467Z,9.92
2023-04-18T04:45:41.517Z,9.98
2023-04-18T04:46:44.888Z,10.06
2023-04-18T04:47:46.498Z,10.14
2023-04-18T04:48:48.077Z,10.22
2023-04-18T04:49:49.575Z,10.28
2023-04-18T04:50:53.807Z,10.37
2023-04-18T04:51:55.383Z,10.46
2023-04-18T04:52:56.904Z,10.52
2023-04-18T04:53:58.488Z,10.59
2023-04-18T04:55:00.056Z,10.63
2023-04-18T04:56:01.931Z,10.63
2023-04-18T04:57:04.355Z,10.66
2023-04-18T04:58:05.899Z,10.71
2023-04-18T04:59:07.583Z,10.72
2023-04-18T05:00:09.873Z,10.74
2023-04-18T05:01:12.471Z,10.79
2023-04-18T05:02:14.065Z,10.87
2023-04-18T05:03:16.047Z,10.89
2023-04-18T05:04:18.343Z,10.89
2023-04-18T05:05:20.252Z,10.96
2023-04-18T05:06:22.777Z,10.96
2023-04-18T05:07:24.414Z,10.77
2023-04-18T05:08:26.232Z,10.38
2023-04-18T05:09:27.840Z,10.14
2023-04-18T05:10:30.377Z,9.96
2023-04-18T05:11:31.877Z,9.77
2023-04-18T05:12:33.460Z,9.73
2023-04-18T05:13:35.100Z,9.65
2023-04-18T05:14:36.601Z,9.48
2023-04-18T05:15:39.211Z,9.39
2023-04-18T05:16:40.816Z,9.28
2023-04-18T05:17:43.110Z,9.23
2023-04-18T05:18:44.737Z,9.20
2023-04-18T05:19:46.425Z,9.21
2023-04-18T05:20:48.017Z,9.19
2023-04-18T05:21:49.705Z,9.22
2023-04-18T05:22:51.308Z,9.33
2023-04-18T05:23:53.131Z,9.47
2023-04-18T05:24:54.681Z,9.60
2023-04-18T05:25:56.389Z,9.57
2023-04-18T05:26:58.003Z,9.64
2023-04-18T05:28:04.796Z,9.77
2023-04-18T05:29:06.321Z,9.81
2023-04-18T05:30:08.423Z,9.85
2023-04-18T05:31:10.021Z,9.89
2023-04-18T05:32:12.083Z,9.89
2023-04-18T05:33:13.691Z,9.87
2023-04-18T05:34:15.529Z,9.90
2023-04-18T05:35:17.564Z,9.89
2023-04-18T05:36:19.454Z,9.93
2023-04-18T05:37:22.263Z,10.01
2023-04-18T05:38:23.963Z,10.13
2023-04-18T05:39:25.717Z,10.27
2023-04-18T05:40:27.543Z,10.31
2023-04-18T05:41:29.103Z,10.37
2023-04-18T05:42:30.733Z,10.36
2023-04-18T05:43:32.327Z,10.44
2023-04-18T05:44:33.886Z,10.59
2023-04-18T05:45:35.433Z,10.72
2023-04-18T05:46:37.027Z,10.85
2023-04-18T05:47:38.601Z,10.87
2023-04-18T05:48:40.143Z,10.92
2023-04-18T05:49:41.913Z,10.99
2023-04-18T05:50:43.476Z,11.04
2023-04-18T05:51:45.962Z,11.09
2023-04-18T05:52:47.658Z,11.16
2023-04-18T05:53:49.222Z,11.23
2023-04-18T05:54:50.906Z,11.28
2023-04-18T05:55:52.625Z,11.30
2023-04-18T05:56:55.100Z,11.38
2023-04-18T05:57:56.703Z,11.45
2023-04-18T05:58:58.222Z,11.52
2023-04-18T05:59:59.750Z,11.57
2023-04-18T06:01:01.746Z,11.58
2023-04-18T06:02:03.379Z,11.62
2023-04-18T06:03:05.528Z,11.67
2023-04-18T06:04:08.726Z,11.74
2023-04-18T06:05:10.784Z,11.81
2023-04-18T06:06:12.948Z,11.85
2023-04-18T06:07:14.648Z,11.90
2023-04-18T06:08:16.521Z,11.91
2023-04-18T06:09:18.054Z,11.91
2023-04-18T06:10:19.603Z,11.93
2023-04-18T06:11:21.649Z,11.94
2023-04-18T06:12:23.166Z,11.98
2023-04-18T06:13:24.828Z,12.00
2023-04-18T06:14:26.424Z,12.03
2023-04-18T06:15:28.428Z,12.06
2023-04-18T06:16:30.063Z,12.06
2023-04-18T06:17:32.029Z,12.06
2023-04-18T06:18:33.995Z,12.08
2023-04-18T06:19:35.728Z,12.11
2023-04-18T06:20:37.367Z,12.11
2023-04-18T06:21:41.983Z,12.14
2023-04-18T06:22:43.720Z,12.19
2023-04-18T06:23:45.277Z,12.24
2023-04-18T06:24:46.770Z,12.26
2023-04-18T06:25:48.364Z,12.27
2023-04-18T06:26:49.995Z,12.30
2023-04-18T06:27:51.580Z,12.33
2023-04-18T06:28:54.214Z,12.34
2023-04-18T06:29:55.809Z,12.35
2023-04-18T06:30:57.362Z,12.38
2023-04-18T06:31:59.567Z,12.32
2023-04-18T06:33:01.372Z,12.28
2023-04-18T06:34:03.301Z,12.18
2023-04-18T06:35:05.247Z,12.11
2023-04-18T06:36:07.369Z,11.77
2023-04-18T06:37:08.939Z,11.45
2023-04-18T06:38:13.589Z,11.21
2023-04-18T06:39:15.287Z,11.21
2023-04-18T06:40:17.338Z,11.27
2023-04-18T06:41:18.848Z,11.28
2023-04-18T06:42:22.551Z,11.32
2023-04-18T06:43:24.417Z,11.36
2023-04-18T06:44:26.047Z,11.41
2023-04-18T06:45:27.755Z,11.36
2023-04-18T06:46:29.572Z,11.22
2023-04-18T06:47:31.445Z,11.22
2023-04-18T06:48:33.066Z,11.16
2023-04-18T06:49:34.740Z,11.15
2023-04-18T06:50:36.287Z,11.29
2023-04-18T06:51:37.892Z,11.30
2023-04-18T06:52:44.235Z,11.30
2023-04-18T06:53:46.072Z,11.38
2023-04-18T06:54:47.625Z,11.50
2023-04-18T06:55:49.372Z,11.65
2023-04-18T06:56:51.065Z,11.57
2023-04-18T06:57:53.015Z,11.40
2023-04-18T06:58:54.560Z,11.47
2023-04-18T06:59:56.125Z,11.55
2023-04-18T07:00:57.690Z,11.69
2023-04-18T07:01:59.270Z,11.81
2023-04-18T07:03:02.797Z,11.87
2023-04-18T07:04:05.459Z,11.77
2023-04-18T07:05:07.998Z,11.73
2023-04-18T07:06:11.157Z,11.60
2023-04-18T07:07:12.730Z,11.58
2023-04-18T07:08:14.259Z,11.55
2023-04-18T07:09:15.817Z,11.46
2023-04-18T07:10:17.355Z,11.50
2023-04-18T07:11:18.987Z,11.50
2023-04-18T07:12:21.104Z,11.52
2023-04-18T07:13:22.673Z,11.57
2023-04-18T07:14:24.977Z,11.68
2023-04-18T07:15:26.582Z,11.68
2023-04-18T07:16:28.211Z,11.76
2023-04-18T07:17:29.832Z,11.87
2023-04-18T07:18:38.137Z,11.87
2023-04-18T07:19:41.295Z,11.92
2023-04-18T07:20:42.943Z,12.06
2023-04-18T07:21:46.017Z,12.10
2023-04-18T07:22:48.876Z,12.03
2023-04-18T07:23:50.444Z,11.96
2023-04-18T07:24:52.022Z,11.93
2023-04-18T07:25:53.717Z,11.98
2023-04-18T07:26:55.437Z,12.08
2023-04-18T07:27:57.042Z,12.14
2023-04-18T07:28:58.582Z,12.11
2023-04-18T07:30:00.094Z,12.13
2023-04-18T07:31:03.203Z,12.15
2023-04-18T07:32:06.213Z,12.36
2023-04-18T07:33:09.610Z,12.56
2023-04-18T07:34:11.585Z,12.71
2023-04-18T07:35:13.336Z,12.61
2023-04-18T07:36:14.960Z,12.61
2023-04-18T07:37:18.327Z,12.76
2023-04-18T07:38:20.228Z,12.84
2023-04-18T07:39:21.752Z,12.87
2023-04-18T07:40:23.317Z,13.21
2023-04-18T07:41:24.907Z,13.44
2023-04-18T07:42:26.810Z,13.55
2023-04-18T07:43:28.406Z,13.60
2023-04-18T07:44:29.938Z,13.88
2023-04-18T07:45:31.584Z,14.15
2023-04-18T07:46:34.013Z,14.28
2023-04-18T07:47:35.741Z,14.14
2023-04-18T07:48:37.468Z,14.21
2023-04-18T07:49:39.054Z,14.39
2023-04-18T07:50:40.597Z,14.62
2023-04-18T07:51:42.120Z,14.83
2023-04-18T07:52:47.666Z,15.07
2023-04-18T07:53:49.180Z,15.33
2023-04-18T07:54:50.746Z,15.42
2023-04-18T07:55:52.305Z,15.56
2023-04-18T07:56:53.872Z,15.64
2023-04-18T07:57:55.422Z,15.78
2023-04-18T07:58:56.949Z,15.97
2023-04-18T07:59:58.511Z,16.18
2023-04-18T08:01:00.137Z,16.23
2023-04-18T08:02:01.778Z,16.27
2023-04-18T08:03:03.640Z,16.33
2023-04-18T08:04:06.014Z,16.34
2023-04-18T08:05:08.518Z,16.31
2023-04-18T08:06:10.200Z,16.19
2023-04-18T08:07:11.737Z,16.12
2023-04-18T08:08:13.441Z,16.01
2023-04-18T08:09:15.250Z,15.85
2023-04-18T08:10:17.074Z,15.82
2023-04-18T08:11:18.622Z,15.85
2023-04-18T08:12:20.192Z,15.89
2023-04-18T08:13:21.774Z,15.69
2023-04-18T08:14:23.432Z,15.64
2023-04-18T08:15:25.089Z,15.73
2023-04-18T08:16:27.554Z,15.68
2023-04-18T08:17:29.337Z,15.78
2023-04-18T08:18:30.905Z,15.88
2023-04-18T08:19:32.433Z,15.94
2023-04-18T08:20:37.157Z,16.03
2023-04-18T08:21:39.339Z,16.04
2023-04-18T08:22:53.856Z,16.08
2023-04-18T08:24:02.880Z,16.30
2023-04-18T08:25:05.760Z,16.41
2023-04-18T08:26:07.531Z,16.48
2023-04-18T08:27:09.170Z,16.51
2023-04-18T08:28:11.061Z,16.55
2023-04-18T08:29:13.065Z,16.62
2023-04-18T08:30:15.156Z,16.78
2023-04-18T08:31:17.313Z,16.91
2023-04-18T08:32:18.908Z,17.01
2023-04-18T08:33:22.274Z,16.96
2023-04-18T08:34:24.179Z,16.92
2023-04-18T08:35:25.847Z,16.84
2023-04-18T08:36:28.060Z,16.74
2023-04-18T08:37:30.261Z,16.71
2023-04-18T08:38:31.947Z,16.78
2023-04-18T08:39:33.492Z,16.80
2023-04-18T08:40:35.054Z,16.78
2023-04-18T08:41:41.981Z,16.74
2023-04-18T08:42:47.110Z,16.81
2023-04-18T08:43:49.108Z,16.92
2023-04-18T08:44:51.446Z,17.03
2023-04-18T08:45:58.791Z,17.16
2023-04-18T08:47:01.563Z,17.08
2023-04-18T08:48:03.743Z,17.03
2023-04-18T08:49:06.240Z,16.93
2023-04-18T08:50:09.605Z,16.94
2023-04-18T08:51:11.357Z,16.85
2023-04-18T08:52:14.534Z,16.89
2023-04-18T08:53:17.811Z,16.89
2023-04-18T08:54:20.758Z,16.93
2023-04-18T08:55:25.238Z,16.86
2023-04-18T08:56:27.290Z,16.92
2023-04-18T08:57:30.861Z,16.81
2023-04-18T08:58:33.904Z,16.62
2023-04-18T08:59:35.995Z,16.67
2023-04-18T09:00:37.593Z,16.83
2023-04-18T09:01:52.922Z,16.89
2023-04-18T09:02:56.939Z,16.90
2023-04-18T09:03:58.972Z,16.91
2023-04-18T09:05:00.632Z,16.98
2023-04-18T09:06:14.437Z,16.95
2023-04-18T09:07:17.082Z,16.96
2023-04-18T09:08:26.414Z,16.88
2023-04-18T09:09:28.077Z,16.83
2023-04-18T09:10:34.193Z,16.81
2023-04-18T09:11:35.744Z,16.79
2023-04-18T09:12:52.197Z,16.66
2023-04-18T09:13:56.076Z,16.75
2023-04-18T09:15:10.905Z,16.80
2023-04-18T09:16:13.401Z,16.76
2023-04-18T09:17:37.813Z,16.80
2023-04-18T09:18:39.404Z,16.55
2023-04-18T09:19:49.015Z,16.55
2023-04-18T09:20:50.607Z,16.62
2023-04-18T09:22:00.854Z,16.62
2023-04-18T09:23:04.435Z,16.63
2023-04-18T09:24:23.972Z,16.80
2023-04-18T09:25:42.705Z,16.86
2023-04-18T09:26:47.825Z,16.90
2023-04-18T09:27:49.426Z,16.81
2023-04-18T09:28:53.969Z,16.73
2023-04-18T09:29:57.799Z,16.72
2023-04-18T09:31:15.301Z,16.81
2023-04-18T09:32:25.004Z,16.59
2023-04-18T09:33:34.338Z,16.54
2023-04-18T09:34:42.568Z,16.63
2023-04-18T09:35:44.188Z,16.57
2023-04-18T09:36:45.788Z,16.66
2023-04-18T09:37:51.186Z,16.80
2023-04-18T09:38:56.319Z,16.88
2023-04-18T09:39:58.795Z,16.92
2023-04-18T09:41:15.681Z,17.11
2023-04-18T09:42:18.423Z,17.32
2023-04-18T09:43:20.822Z,17.43
2023-04-18T09:44:22.416Z,17.49
2023-04-18T09:45:25.403Z,17.52
2023-04-18T09:46:27.812Z,17.45
2023-04-18T09:47:30.780Z,17.63
2023-04-18T09:48:32.388Z,17.73
2023-04-18T09:49:33.966Z,17.76
2023-04-18T09:50:36.494Z,17.81
2023-04-18T09:51:40.359Z,17.64
2023-04-18T09:52:43.332Z,17.48
2023-04-18T09:53:47.437Z,17.47
2023-04-18T09:54:55.097Z,17.40
2023-04-18T09:55:57.957Z,17.47
2023-04-18T09:57:02.857Z,17.60
2023-04-18T09:58:05.939Z,17.86
2023-04-18T09:59:09.363Z,18.00
2023-04-18T10:00:20.487Z,18.08
2023-04-18T10:01:23.217Z,18.15
2023-04-18T10:02:28.887Z,18.19
2023-04-18T10:03:39.206Z,18.20
2023-04-18T10:04:41.783Z,18.12
2023-04-18T10:05:44.385Z,18.02
2023-04-18T10:06:46.955Z,17.98
2023-04-18T10:07:50.141Z,17.88
2023-04-18T10:08:52.602Z,17.70
2023-04-18T10:09:54.160Z,17.67
2023-04-18T10:10:58.625Z,17.67
2023-04-18T10:12:02.632Z,17.48
2023-04-18T10:13:06.196Z,17.56
2023-04-18T10:14:11.867Z,17.15
2023-04-18T10:15:15.722Z,17.16
2023-04-18T10:16:18.147Z,17.09
2023-04-18T10:17:20.361Z,16.92
2023-04-18T10:18:25.317Z,16.93
2023-04-18T10:19:29.535Z,16.91
2023-04-18T10:20:32.931Z,16.81
2023-04-18T10:21:34.496Z,16.52
2023-04-18T10:22:36.589Z,16.27
2023-04-18T10:23:39.797Z,16.21
2023-04-18T10:24:56.245Z,16.16
2023-04-18T10:25:58.731Z,16.09
2023-04-18T10:27:00.285Z,16.09
2023-04-18T10:28:03.279Z,16.18
2023-04-18T10:29:04.862Z,16.20
2023-04-18T10:30:08.978Z,16.18
2023-04-18T10:31:10.818Z,16.11
2023-04-18T10:32:12.436Z,16.06
2023-04-18T10:33:30.293Z,16.02
2023-04-18T10:34:33.242Z,15.99
2023-04-18T10:35:36.042Z,16.06
2023-04-18T10:36:57.590Z,16.14
2023-04-18T10:37:59.620Z,16.23
2023-04-18T10:39:19.923Z,16.19
2023-04-18T10:40:34.765Z,16.08
2023-04-18T10:41:49.416Z,16.00
2023-04-18T10:42:54.226Z,16.10
2023-04-18T10:44:12.308Z,15.94
2023-04-18T10:45:24.408Z,15.66
2023-04-18T10:46:32.627Z,15.54
2023-04-18T10:47:34.621Z,15.44
2023-04-18T10:48:39.178Z,15.41
2023-04-18T10:49:53.722Z,15.32
2023-04-18T10:51:17.688Z,15.27
2023-04-18T10:52:19.303Z,15.27
2023-04-18T10:53:20.896Z,15.33
2023-04-18T10:54:25.492Z,15.42
2023-04-18T10:55:29.442Z,15.46
2023-04-18T10:56:31.019Z,15.40
2023-04-18T10:58:02.149Z,15.31
2023-04-18T10:59:03.819Z,15.28
2023-04-18T11:00:09.366Z,15.27
2023-04-18T11:01:14.533Z,15.20
2023-04-18T11:02:29.634Z,15.14
2023-04-18T11:03:34.010Z,15.14
2023-04-18T11:04:35.959Z,15.16
2023-04-18T11:05:37.606Z,15.21
2023-04-18T11:06:55.949Z,15.30
2023-04-18T11:07:57.610Z,15.38
2023-04-18T11:09:12.185Z,15.41
2023-04-18T11:10:17.457Z,15.41
2023-04-18T11:11:19.026Z,15.46
2023-04-18T11:12:20.920Z,15.47
2023-04-18T11:13:22.531Z,15.46
2023-04-18T11:14:24.193Z,15.34
2023-04-18T11:15:26.286Z,15.31
2023-04-18T11:16:30.374Z,15.39
2023-04-18T11:17:33.068Z,15.48
2023-04-18T11:18:41.957Z,15.54
2023-04-18T11:19:43.539Z,15.37
2023-04-18T11:20:50.020Z,15.22
2023-04-18T11:21:52.316Z,15.12
2023-04-18T11:22:56.951Z,15.11
2023-04-18T11:23:58.774Z,15.16
2023-04-18T11:25:01.851Z,15.08
2023-04-18T11:26:03.592Z,15.10
2023-04-18T11:27:05.485Z,15.15
2023-04-18T11:28:07.052Z,15.17
2023-04-18T11:29:08.611Z,15.25
2023-04-18T11:30:11.324Z,15.28
2023-04-18T11:31:16.200Z,15.29
2023-04-18T11:32:17.796Z,15.28
2023-04-18T11:33:19.372Z,15.27
2023-04-18T11:34:21.100Z,15.30
2023-04-18T11:35:22.857Z,15.31
2023-04-18T11:36:24.548Z,15.19
2023-04-18T11:37:26.082Z,15.19
2023-04-18T11:38:30.298Z,15.19
2023-04-18T11:39:36.079Z,15.06
2023-04-18T11:40:38.009Z,14.84
2023-04-18T11:41:41.473Z,14.64
2023-04-18T11:42:43.053Z,14.48
2023-04-18T11:43:45.966Z,14.28
2023-04-18T11:44:49.194Z,14.22
2023-04-18T11:45:55.745Z,14.18
2023-04-18T11:46:57.328Z,14.01
2023-04-18T11:48:00.860Z,13.88
2023-04-18T11:49:02.555Z,13.79
2023-04-18T11:50:06.788Z,13.73
2023-04-18T11:51:34.090Z,13.73
2023-04-18T11:52:36.515Z,13.69
2023-04-18T11:53:39.558Z,13.55
2023-04-18T11:54:44.964Z,13.51
2023-04-18T11:55:56.481Z,13.50
2023-04-18T11:56:58.007Z,13.45
2023-04-18T11:58:01.489Z,13.49
2023-04-18T11:59:09.598Z,13.48
2023-04-18T12:00:12.690Z,13.50
2023-04-18T12:01:18.195Z,13.51
2023-04-18T12:02:21.909Z,13.55
2023-04-18T12:03:24.655Z,13.54
2023-04-18T12:04:26.867Z,13.59
2023-04-18T12:05:39.166Z,13.62
2023-04-18T12:06:51.837Z,13.69
2023-04-18T12:07:54.002Z,13.73
2023-04-18T12:09:00.152Z,13.85
2023-04-18T12:10:02.762Z,14.00
2023-04-18T12:11:04.401Z,14.11
2023-04-18T12:12:06.752Z,14.22
2023-04-18T12:13:08.889Z,14.44
2023-04-18T12:14:21.658Z,14.54
2023-04-18T12:15:27.097Z,14.60
2023-04-18T12:16:30.407Z,14.65
2023-04-18T12:17:32.392Z,14.71
2023-04-18T12:18:34.179Z,14.83
2023-04-18T12:19:36.255Z,14.89
2023-04-18T12:20:39.848Z,14.80
2023-04-18T12:22:10.734Z,14.67
2023-04-18T12:23:35.530Z,14.41
2023-04-18T12:24:37.946Z,14.29
2023-04-18T12:25:39.671Z,14.12
2023-04-18T12:26:45.866Z,14.00
2023-04-18T12:28:17.599Z,13.85
2023-04-18T12:29:19.189Z,13.77
2023-04-18T12:30:22.803Z,13.81
2023-04-18T12:31:24.361Z,13.83
2023-04-18T12:32:25.947Z,13.81
2023-04-18T12:33:27.855Z,13.75
2023-04-18T12:34:29.431Z,13.69
2023-04-18T12:35:31.981Z,13.64
2023-04-18T12:36:33.533Z,13.62
2023-04-18T12:37:35.143Z,13.66
2023-04-18T12:38:36.855Z,13.71
2023-04-18T12:39:38.386Z,13.65
2023-04-18T12:40:43.470Z,13.63
2023-04-18T12:41:45.055Z,13.67
2023-04-18T12:42:48.020Z,13.72
2023-04-18T12:43:49.889Z,13.78
2023-04-18T12:44:51.453Z,13.88
2023-04-18T12:45:53.001Z,14.00
2023-04-18T12:46:54.601Z,14.00
2023-04-18T12:47:56.216Z,14.07
2023-04-18T12:48:57.911Z,14.16
2023-04-18T12:49:59.456Z,14.23
2023-04-18T12:51:01.070Z,14.33
2023-04-18T12:52:02.579Z,14.46
2023-04-18T12:53:04.836Z,14.48
2023-04-18T12:54:06.466Z,14.47
2023-04-18T12:55:08.949Z,14.47
2023-04-18T12:56:10.882Z,14.40
2023-04-18T12:57:12.450Z,14.28
2023-04-18T12:58:18.530Z,14.25
2023-04-18T12:59:20.185Z,14.31
2023-04-18T13:00:27.787Z,14.35
2023-04-18T13:01:29.588Z,14.36
2023-04-18T13:02:32.277Z,14.36
2023-04-18T13:03:34.359Z,14.41
2023-04-18T13:04:39.249Z,14.48
2023-04-18T13:05:41.114Z,14.37
2023-04-18T13:06:42.820Z,14.33
2023-04-18T13:07:47.367Z,14.36
2023-04-18T13:08:48.913Z,14.38
2023-04-18T13:09:50.613Z,14.45
2023-04-18T13:10:52.143Z,14.44
2023-04-18T13:11:53.693Z,14.48
2023-04-18T13:12:55.708Z,14.55
2023-04-18T13:13:57.281Z,14.60
2023-04-18T13:14:58.812Z,14.62
2023-04-18T13:16:00.770Z,14.61
2023-04-18T13:17:02.351Z,14.69
2023-04-18T13:18:06.472Z,14.83
2023-04-18T13:19:08.325Z,14.88
2023-04-18T13:20:12.450Z,14.90
2023-04-18T13:21:14.057Z,15.02
2023-04-18T13:22:15.829Z,15.10
2023-04-18T13:23:17.613Z,15.06
2023-04-18T13:24:19.210Z,15.05
2023-04-18T13:25:21.760Z,15.07
2023-04-18T13:26:23.562Z,14.98
2023-04-18T13:27:25.181Z,14.89
2023-04-18T13:28:26.803Z,14.85
2023-04-18T13:29:28.410Z,14.86
2023-04-18T13:30:30.034Z,14.89
2023-04-18T13:31:31.881Z,14.91
2023-04-18T13:32:33.861Z,14.89
2023-04-18T13:33:35.406Z,14.96
2023-04-18T13:34:39.692Z,15.04
2023-04-18T13:35:41.686Z,14.99
2023-04-18T13:36:43.335Z,14.99
2023-04-18T13:37:46.226Z,15.13
2023-04-18T13:38:48.152Z,15.18